Startpagina
METAR-TAF:

METAR-TAF

Vliegvelden :

Diepholz, Duitsland

breedte: 52-35N, lengte: 008-21E, hoogte: 39 m

Actueel weer

Dit bericht is 24 uur en het 46 minuten geleden gemaakt, om 13:20 UTC
Wind 7 kt uit het noordwesten
Temperatuur 19°C
Vochtigheid 40%
Druk 1025 hPa
Zicht 10 km of meer
Weinig wolken op 5000 ft

METAR: ETND 091320Z 32007KT 9999 FEW050 19/05 Q1025 BLU+

Tijdstip: 16:06 (14:06 UTC)

Verwachting

Dit bericht is 20 uur en het 27 minuten geleden gemaakt, om 17:39 UTC
Verwachting geldig van 09 om 17 UTC tot 09 om 20 UTC
Wind 8 kt uit het noordwesten
Zicht: 1739 m
Weinig wolken op 8000 ft
Verspreide wolken op 24000 ft

TAF: ETND 091739Z 0917/0920 32008KT 9999 NSW FEW080 SCT240 CANCEL 1739 BY ETGL

Waarnemingen en weersverwachtingen van meer dan 4000 vliegvelden (METAR en TAF).

De beschikbare stations zijn de gele en rode punten op de kaart.

Ga met uw muis naar het station om de naam te zien.

Klik dan om waarnemingen en weersverwachtingen te zien.

kaart wijzigen: klik op de groene knoppen met een zwart kruis om in te zoomen, op de groene knop met een streepje om uit te zoomen of op de groene pijlen voor aangrenzende kaarten.


METAR-TAF: